Time;durP1;ratioP1;P1;durP2;ratioP2;P2;SDS_P1;SDS_P2;PMS_P1;PMS_P2;Temp;Humidity;BMP_temperature;BMP_pressure;BME280_temperature;BME280_humidity;BME280_pressure;Samples;Min_cycle;Max_cycle;Signal;HPM_P1;HPM_P2
2023/11/02 00:02:23;;;;;;;2.07;1.50;;;12.50;99.90;;;;;;5085334;28;20850;-67
2023/11/02 00:04:51;;;;;;;3.23;1.60;;;12.50;99.90;;;;;;5096609;28;20627;-67
2023/11/02 00:07:19;;;;;;;1.77;1.33;;;12.50;99.90;;;;;;5105518;28;20297;-67
2023/11/02 00:09:46;;;;;;;4.30;1.50;;;12.50;99.90;;;;;;5085227;28;20318;-67
2023/11/02 00:12:19;;;;;;;3.60;1.50;;;12.50;99.90;;;;;;5085183;28;20294;-67
2023/11/02 00:14:52;;;;;;;2.87;1.17;;;12.50;99.90;;;;;;5085130;28;20199;-68
2023/11/02 00:17:59;;;;;;;2.30;1.27;;;12.50;99.90;;;;;;5085266;28;20231;-67
2023/11/02 00:20:39;;;;;;;4.77;1.30;;;12.50;99.90;;;;;;5084795;28;20313;-67
2023/11/02 00:23:07;;;;;;;1.97;1.40;;;12.50;99.90;;;;;;5085735;28;20293;-67
2023/11/02 00:25:55;;;;;;;2.50;1.27;;;12.50;99.90;;;;;;5097060;28;20301;-67
2023/11/02 00:28:23;;;;;;;1.97;1.50;;;12.50;99.90;;;;;;5086876;28;20194;-67
2023/11/02 00:30:51;;;;;;;2.17;1.50;;;12.50;99.90;;;;;;5104730;28;20321;-67
2023/11/02 00:33:20;;;;;;;3.07;1.23;;;12.50;99.90;;;;;;5090065;28;20682;-67
2023/11/02 00:35:50;;;;;;;3.60;1.40;;;12.50;99.90;;;;;;5087456;28;20236;-67
2023/11/02 00:38:21;;;;;;;2.07;1.37;;;12.50;99.90;;;;;;5084627;28;20302;-67
2023/11/02 00:40:49;;;;;;;2.50;1.30;;;12.50;99.90;;;;;;5086688;28;20738;-67
2023/11/02 00:43:16;;;;;;;3.93;1.27;;;12.40;99.90;;;;;;5084644;28;20673;-67
2023/11/02 00:45:43;;;;;;;3.90;1.50;;;12.40;99.90;;;;;;5084581;28;20248;-67
2023/11/02 00:48:19;;;;;;;2.07;1.40;;;12.40;99.90;;;;;;5084347;28;20749;-67
2023/11/02 00:51:20;;;;;;;2.47;1.27;;;12.40;99.90;;;;;;5100714;28;20225;-67
2023/11/02 00:53:51;;;;;;;2.50;1.23;;;12.40;99.90;;;;;;5083267;28;20206;-67
2023/11/02 00:56:19;;;;;;;1.77;1.10;;;12.40;99.90;;;;;;5084505;28;20307;-67
2023/11/02 00:58:48;;;;;;;1.63;1.30;;;12.40;99.90;;;;;;5084019;28;20239;-67
2023/11/02 01:01:17;;;;;;;2.60;1.30;;;12.40;99.90;;;;;;5094797;28;20289;-67
2023/11/02 01:03:48;;;;;;;3.63;1.50;;;12.40;99.90;;;;;;5096843;28;20206;-67
2023/11/02 01:06:19;;;;;;;2.73;1.23;;;12.40;99.90;;;;;;5104681;28;20561;-67
2023/11/02 01:08:54;;;;;;;1.53;1.43;;;12.40;99.90;;;;;;5104665;28;20199;-67
2023/11/02 01:11:23;;;;;;;1.43;1.20;;;12.40;99.90;;;;;;5104636;28;20328;-67
2023/11/02 01:13:50;;;;;;;3.03;1.30;;;12.40;99.90;;;;;;5087138;28;20649;-67
2023/11/02 01:16:17;;;;;;;1.90;1.50;;;12.40;99.90;;;;;;5101167;28;20211;-67
2023/11/02 01:18:47;;;;;;;3.30;1.40;;;12.40;99.90;;;;;;5103905;28;20238;-67
2023/11/02 01:21:16;;;;;;;2.63;1.30;;;12.40;99.90;;;;;;5107491;28;20297;-67
2023/11/02 01:23:43;;;;;;;1.63;1.30;;;12.40;99.90;;;;;;5091858;28;20677;-67
2023/11/02 01:26:57;;;;;;;2.90;1.40;;;12.40;99.90;;;;;;5092147;28;20233;-67
2023/11/02 01:29:28;;;;;;;2.73;1.43;;;12.40;99.90;;;;;;5088490;28;20680;-67
2023/11/02 01:31:55;;;;;;;2.40;1.33;;;12.40;99.90;;;;;;5087740;28;20223;-67
2023/11/02 01:34:24;;;;;;;1.63;1.33;;;12.40;99.90;;;;;;5101600;28;20210;-67
2023/11/02 01:36:56;;;;;;;2.87;1.50;;;12.40;99.90;;;;;;5107942;28;20210;-67
2023/11/02 01:39:53;;;;;;;2.33;1.20;;;12.40;99.90;;;;;;5087288;28;20209;-67
2023/11/02 01:42:26;;;;;;;2.67;1.40;;;12.40;99.90;;;;;;5087250;28;20640;-67
2023/11/02 01:45:05;;;;;;;2.77;1.50;;;12.30;99.90;;;;;;5087542;28;20248;-67
2023/11/02 01:47:52;;;;;;;1.87;1.27;;;12.20;99.90;;;;;;5089517;28;20210;-67
2023/11/02 01:50:28;;;;;;;5.40;1.50;;;12.20;99.90;;;;;;5087234;28;20346;-67
2023/11/02 01:53:17;;;;;;;2.67;1.07;;;12.20;99.90;;;;;;5087515;28;20293;-67
2023/11/02 01:56:08;;;;;;;2.23;1.20;;;12.20;99.90;;;;;;5086932;28;20285;-67
2023/11/02 01:58:47;;;;;;;2.37;1.23;;;12.20;99.90;;;;;;5092556;28;20667;-68
2023/11/02 02:01:23;;;;;;;2.13;1.13;;;12.30;99.90;;;;;;5087248;28;20217;-67
2023/11/02 02:04:00;;;;;;;1.90;1.20;;;12.30;99.90;;;;;;5096685;28;20212;-64
2023/11/02 02:06:40;;;;;;;1.40;1.30;;;12.30;99.90;;;;;;5107146;28;20316;-65
2023/11/02 02:09:17;;;;;;;5.47;1.90;;;12.20;99.90;;;;;;5107341;28;20205;-64
2023/11/02 02:11:54;;;;;;;2.03;1.40;;;12.10;99.90;;;;;;5106907;28;20298;-64
2023/11/02 02:14:28;;;;;;;2.53;1.40;;;12.10;99.90;;;;;;5107560;28;20216;-66
2023/11/02 02:17:10;;;;;;;1.63;1.10;;;12.10;99.90;;;;;;5107651;28;20284;-67
2023/11/02 02:20:06;;;;;;;2.33;1.57;;;12.10;99.90;;;;;;5107253;28;20201;-65
2023/11/02 02:22:42;;;;;;;2.03;1.20;;;12.10;99.90;;;;;;5086812;28;20369;-65
2023/11/02 02:25:19;;;;;;;1.47;1.10;;;12.10;99.90;;;;;;5086579;28;20293;-65
2023/11/02 02:28:03;;;;;;;2.77;1.20;;;12.10;99.90;;;;;;5086580;28;20277;-67
2023/11/02 02:31:08;;;;;;;3.17;1.30;;;12.20;99.90;;;;;;5104236;28;20291;-65
2023/11/02 02:34:11;;;;;;;3.87;1.43;;;12.20;99.90;;;;;;5073943;28;20382;-67
2023/11/02 02:36:44;;;;;;;3.67;1.30;;;12.20;99.90;;;;;;5106809;28;20194;-66
2023/11/02 02:39:15;;;;;;;2.50;1.13;;;12.20;99.90;;;;;;5106278;28;20196;-66
2023/11/02 02:41:45;;;;;;;1.47;1.10;;;12.20;99.90;;;;;;5106364;28;20660;-65
2023/11/02 02:44:16;;;;;;;3.37;1.13;;;12.20;99.90;;;;;;5106805;28;20653;-65
2023/11/02 02:46:43;;;;;;;1.50;1.00;;;12.20;99.90;;;;;;5106793;28;20285;-66
2023/11/02 02:49:10;;;;;;;1.30;1.07;;;12.10;99.90;;;;;;5106878;28;20283;-65
2023/11/02 02:51:41;;;;;;;2.33;1.27;;;12.10;99.90;;;;;;5106041;28;20218;-65
2023/11/02 02:54:13;;;;;;;1.90;1.10;;;12.10;99.90;;;;;;5106548;28;20767;-65
2023/11/02 02:56:42;;;;;;;2.13;1.17;;;12.10;99.90;;;;;;5106632;28;20263;-65
2023/11/02 02:59:10;;;;;;;4.60;1.20;;;12.10;99.90;;;;;;5102445;28;21004;-65
2023/11/02 03:01:40;;;;;;;2.47;1.77;;;12.00;99.90;;;;;;5086266;28;20226;-65
2023/11/02 03:04:11;;;;;;;7.90;1.83;;;12.00;99.90;;;;;;5098195;28;20255;-65
2023/11/02 03:06:45;;;;;;;2.43;0.93;;;12.00;99.90;;;;;;5106012;28;20214;-65
2023/11/02 03:09:16;;;;;;;1.87;1.03;;;11.90;99.90;;;;;;5101949;28;20683;-65
2023/11/02 03:11:44;;;;;;;4.20;1.30;;;11.90;99.90;;;;;;5085337;28;20351;-66
2023/11/02 03:14:14;;;;;;;2.20;1.37;;;11.90;99.90;;;;;;5086115;28;20207;-66
2023/11/02 03:16:43;;;;;;;2.47;0.97;;;11.90;99.90;;;;;;5085601;28;21012;-65
2023/11/02 03:19:12;;;;;;;1.03;1.03;;;11.80;99.90;;;;;;5085331;28;20207;-65
2023/11/02 03:21:39;;;;;;;1.77;1.13;;;11.80;99.90;;;;;;5102311;28;20260;-65
2023/11/02 03:24:14;;;;;;;1.40;1.10;;;11.80;99.90;;;;;;5105540;27;20245;-65
2023/11/02 03:26:55;;;;;;;2.87;1.17;;;11.80;99.90;;;;;;5097662;28;20278;-65
2023/11/02 03:29:39;;;;;;;3.03;1.30;;;11.80;99.90;;;;;;5085102;28;20766;-65
2023/11/02 03:32:13;;;;;;;1.73;1.20;;;11.80;99.90;;;;;;5091663;28;21129;-65
2023/11/02 03:34:47;;;;;;;2.77;1.43;;;11.70;99.90;;;;;;5100264;28;20762;-65
2023/11/02 03:37:23;;;;;;;4.43;1.20;;;11.70;99.90;;;;;;5104121;28;20202;-65
2023/11/02 03:40:11;;;;;;;3.40;1.13;;;11.70;99.90;;;;;;5104311;28;20336;-65
2023/11/02 03:42:50;;;;;;;3.00;1.10;;;11.70;99.90;;;;;;5100651;28;20373;-65
2023/11/02 03:45:37;;;;;;;2.13;1.10;;;11.60;99.90;;;;;;5094053;28;20197;-65
2023/11/02 03:48:12;;;;;;;3.80;1.30;;;11.60;99.90;;;;;;5090468;28;20310;-66
2023/11/02 03:50:47;;;;;;;2.00;1.00;;;11.60;99.90;;;;;;5093050;28;20317;-66
2023/11/02 03:53:21;;;;;;;1.53;1.13;;;11.60;99.90;;;;;;5085927;28;20190;-66
2023/11/02 03:56:01;;;;;;;3.67;1.10;;;11.60;99.90;;;;;;5099124;28;20202;-66
2023/11/02 03:58:41;;;;;;;2.20;1.40;;;11.60;99.90;;;;;;5083166;28;20191;-67
2023/11/02 04:01:16;;;;;;;3.23;1.10;;;11.50;99.90;;;;;;5092465;28;20663;-66
2023/11/02 04:03:45;;;;;;;1.70;1.10;;;11.50;99.90;;;;;;5103591;28;20229;-66
2023/11/02 04:06:21;;;;;;;1.47;1.10;;;11.50;99.90;;;;;;5102990;28;20209;-66
2023/11/02 04:08:50;;;;;;;2.10;1.20;;;11.50;99.90;;;;;;5105039;28;20208;-65
2023/11/02 04:11:28;;;;;;;5.07;1.00;;;11.50;99.90;;;;;;5104664;28;20238;-66
2023/11/02 04:14:11;;;;;;;2.47;1.20;;;11.50;99.90;;;;;;5105468;28;20212;-66
2023/11/02 04:16:37;;;;;;;2.27;1.40;;;11.40;99.90;;;;;;5105136;28;20195;-65
2023/11/02 04:19:05;;;;;;;1.40;1.00;;;11.50;99.90;;;;;;5105227;28;20198;-65
2023/11/02 04:21:32;;;;;;;1.60;1.00;;;11.40;99.90;;;;;;5105520;28;20210;-65
2023/11/02 04:23:59;;;;;;;1.33;1.23;;;11.40;99.90;;;;;;5105612;28;20216;-65
2023/11/02 04:26:27;;;;;;;1.73;1.10;;;11.40;99.90;;;;;;5098671;28;20217;-65
2023/11/02 04:28:54;;;;;;;2.20;1.30;;;11.40;99.90;;;;;;5084417;28;20207;-65
2023/11/02 04:31:22;;;;;;;3.57;1.60;;;11.30;99.90;;;;;;5084230;28;20234;-65
2023/11/02 04:33:49;;;;;;;1.67;1.07;;;11.30;99.90;;;;;;5093793;28;20221;-65
2023/11/02 04:36:15;;;;;;;2.30;1.20;;;11.30;99.90;;;;;;5104559;28;20301;-65
2023/11/02 04:38:42;;;;;;;1.37;1.10;;;11.20;99.90;;;;;;5104725;28;20209;-65
2023/11/02 04:41:09;;;;;;;4.13;1.57;;;11.20;99.90;;;;;;5104832;28;20241;-65
2023/11/02 04:43:36;;;;;;;2.23;1.17;;;11.20;99.90;;;;;;5104637;28;20210;-65
2023/11/02 04:46:04;;;;;;;1.37;1.10;;;11.20;99.90;;;;;;5105020;28;20668;-65
2023/11/02 04:48:32;;;;;;;2.53;1.00;;;11.20;99.90;;;;;;5105112;28;21033;-65
2023/11/02 04:51:00;;;;;;;2.13;1.00;;;11.20;99.90;;;;;;5105199;28;20818;-66
2023/11/02 04:53:27;;;;;;;2.73;1.37;;;11.20;99.90;;;;;;5104883;28;21084;-65
2023/11/02 04:55:54;;;;;;;2.07;1.30;;;11.20;99.90;;;;;;5107934;28;20666;-65
2023/11/02 04:58:21;;;;;;;1.20;1.20;;;11.20;99.90;;;;;;5108657;28;20984;-65
2023/11/02 05:00:47;;;;;;;2.47;0.90;;;11.10;99.90;;;;;;5108506;28;20248;-66
2023/11/02 05:03:14;;;;;;;1.20;1.10;;;11.10;99.90;;;;;;5108531;28;20216;-66
2023/11/02 05:05:42;;;;;;;3.90;1.30;;;11.10;99.90;;;;;;5093088;28;20490;-66
2023/11/02 05:08:10;;;;;;;1.47;1.17;;;11.10;99.90;;;;;;5088461;28;20242;-65
2023/11/02 05:10:37;;;;;;;2.23;1.20;;;11.10;99.90;;;;;;5088354;28;20202;-66
2023/11/02 05:13:04;;;;;;;3.00;1.27;;;11.10;99.90;;;;;;5088200;28;20237;-65
2023/11/02 05:15:31;;;;;;;2.10;1.30;;;11.10;99.90;;;;;;5088437;28;20299;-65
2023/11/02 05:17:57;;;;;;;1.40;1.13;;;11.00;99.90;;;;;;5088194;28;20210;-66
2023/11/02 05:20:25;;;;;;;1.63;1.30;;;11.00;99.90;;;;;;5088388;28;20210;-65
2023/11/02 05:22:53;;;;;;;1.57;0.90;;;11.00;99.90;;;;;;5096367;28;20637;-66
2023/11/02 05:25:20;;;;;;;1.67;1.00;;;10.90;99.90;;;;;;5108493;28;20209;-65
2023/11/02 05:27:48;;;;;;;2.17;1.27;;;10.90;99.90;;;;;;5108297;28;20210;-66
2023/11/02 05:30:16;;;;;;;1.60;1.40;;;10.90;99.90;;;;;;5108284;28;20213;-66
2023/11/02 05:32:42;;;;;;;2.23;1.23;;;10.90;99.90;;;;;;5107993;28;20234;-65
2023/11/02 05:35:12;;;;;;;1.40;1.20;;;10.90;99.90;;;;;;5108225;28;20297;-66
2023/11/02 05:37:39;;;;;;;1.47;1.20;;;10.90;99.90;;;;;;5107519;28;20732;-66
2023/11/02 05:40:09;;;;;;;2.87;1.20;;;10.90;99.90;;;;;;5107986;28;20321;-65
2023/11/02 05:42:35;;;;;;;1.60;1.10;;;10.90;99.90;;;;;;5108336;28;20809;-66
2023/11/02 05:45:03;;;;;;;3.07;1.30;;;10.90;99.90;;;;;;5108690;28;20320;-66
2023/11/02 05:47:30;;;;;;;2.03;1.33;;;10.90;99.90;;;;;;5108256;28;20214;-65
2023/11/02 05:49:57;;;;;;;3.57;1.60;;;10.90;99.90;;;;;;5108537;28;20257;-66
2023/11/02 05:52:24;;;;;;;1.70;1.40;;;10.90;99.90;;;;;;5107876;28;20703;-65
2023/11/02 05:54:50;;;;;;;3.93;1.60;;;10.80;99.90;;;;;;5107690;28;20305;-65
2023/11/02 05:57:19;;;;;;;1.53;1.40;;;10.80;99.90;;;;;;5107509;28;20301;-66
2023/11/02 05:59:45;;;;;;;1.90;1.20;;;10.80;99.90;;;;;;5107047;28;20260;-66
2023/11/02 06:02:12;;;;;;;1.43;1.33;;;10.80;99.90;;;;;;5107440;28;20206;-66
2023/11/02 06:04:39;;;;;;;2.33;1.47;;;10.80;99.90;;;;;;5119522;27;20555;-65
2023/11/02 06:07:06;;;;;;;3.30;1.40;;;10.70;99.90;;;;;;5126421;27;20333;-65
2023/11/02 06:09:33;;;;;;;2.77;1.30;;;10.70;99.90;;;;;;5107887;27;20675;-66
2023/11/02 06:12:00;;;;;;;6.00;1.40;;;10.70;99.90;;;;;;5087128;28;20238;-65
2023/11/02 06:14:28;;;;;;;1.57;1.30;;;10.80;99.90;;;;;;5087273;28;20209;-66
2023/11/02 06:16:55;;;;;;;2.20;1.50;;;10.70;99.90;;;;;;5087187;28;20249;-66
2023/11/02 06:19:22;;;;;;;1.60;1.50;;;10.70;99.90;;;;;;5097170;28;20291;-65
2023/11/02 06:21:48;;;;;;;2.70;1.30;;;10.70;99.90;;;;;;5107784;28;20289;-66
2023/11/02 06:24:15;;;;;;;2.30;1.60;;;10.70;99.90;;;;;;5107841;28;20293;-66
2023/11/02 06:26:42;;;;;;;3.03;1.60;;;10.70;99.90;;;;;;5101701;28;20217;-65
2023/11/02 06:29:10;;;;;;;1.53;1.43;;;10.70;99.90;;;;;;5107199;28;20308;-65
2023/11/02 06:31:38;;;;;;;2.27;1.50;;;10.70;99.90;;;;;;5106545;28;20349;-66
2023/11/02 06:34:05;;;;;;;2.97;1.70;;;10.80;99.90;;;;;;5106633;28;20201;-66
2023/11/02 06:36:32;;;;;;;1.90;1.57;;;10.70;99.90;;;;;;5106681;28;20206;-66
2023/11/02 06:38:59;;;;;;;4.03;1.80;;;10.80;99.90;;;;;;5106679;28;20700;-65
2023/11/02 06:41:26;;;;;;;3.43;1.90;;;10.80;99.90;;;;;;5106754;28;20202;-66
2023/11/02 06:43:53;;;;;;;3.90;1.80;;;10.80;99.90;;;;;;5106491;28;20285;-66
2023/11/02 06:46:20;;;;;;;1.53;1.43;;;10.90;99.90;;;;;;5106607;28;20317;-66
2023/11/02 06:48:48;;;;;;;5.17;1.70;;;10.90;99.90;;;;;;5106435;28;20214;-66
2023/11/02 06:51:15;;;;;;;2.10;1.80;;;10.90;99.90;;;;;;5106279;28;20819;-66
2023/11/02 06:53:42;;;;;;;2.07;1.70;;;11.00;99.90;;;;;;5106366;27;20210;-65
2023/11/02 06:56:09;;;;;;;2.77;1.90;;;11.00;99.90;;;;;;5106561;28;20240;-65
2023/11/02 06:58:36;;;;;;;2.70;1.90;;;11.00;99.90;;;;;;5105816;27;20698;-66
2023/11/02 07:01:04;;;;;;;2.77;1.90;;;11.00;99.90;;;;;;5106333;28;20194;-65
2023/11/02 07:03:31;;;;;;;1.97;1.80;;;11.10;99.90;;;;;;5105799;28;20218;-66
2023/11/02 07:06:00;;;;;;;3.90;2.10;;;11.00;99.90;;;;;;5095124;28;20222;-65
2023/11/02 07:08:28;;;;;;;2.17;1.97;;;11.00;99.90;;;;;;5085944;28;20614;-65
2023/11/02 07:10:55;;;;;;;2.43;1.90;;;11.10;99.90;;;;;;5085819;28;20213;-65
2023/11/02 07:13:22;;;;;;;2.40;1.90;;;11.10;99.90;;;;;;5085143;28;20234;-65
2023/11/02 07:15:50;;;;;;;4.63;2.57;;;11.10;99.90;;;;;;5085730;28;20293;-66
2023/11/02 07:18:16;;;;;;;5.47;1.83;;;11.10;99.90;;;;;;5084848;28;20203;-65
2023/11/02 07:20:43;;;;;;;3.10;1.90;;;11.20;99.90;;;;;;5085265;28;20330;-66
2023/11/02 07:23:12;;;;;;;2.80;2.10;;;11.20;99.90;;;;;;5089731;28;20326;-65
2023/11/02 07:25:38;;;;;;;4.20;2.43;;;11.30;99.90;;;;;;5105234;28;20300;-65
2023/11/02 07:28:05;;;;;;;4.77;2.20;;;11.30;99.90;;;;;;5105429;28;20297;-66
2023/11/02 07:30:33;;;;;;;2.60;1.87;;;11.40;99.90;;;;;;5105584;28;20205;-66
2023/11/02 07:32:59;;;;;;;2.70;1.77;;;11.40;99.90;;;;;;5105345;28;20322;-65
2023/11/02 07:35:26;;;;;;;4.90;4.50;;;11.40;99.90;;;;;;5105514;28;20226;-65
2023/11/02 07:37:53;;;;;;;7.20;4.43;;;11.40;99.90;;;;;;5105770;28;20582;-66
2023/11/02 07:40:22;;;;;;;2.00;1.80;;;11.40;99.90;;;;;;5105679;28;20226;-65
2023/11/02 07:42:49;;;;;;;2.10;1.90;;;11.40;99.90;;;;;;5105490;28;20202;-66
2023/11/02 07:45:16;;;;;;;6.07;1.97;;;11.40;99.90;;;;;;5105640;28;20214;-65
2023/11/02 07:47:42;;;;;;;2.80;1.80;;;11.40;99.90;;;;;;5105280;28;20296;-65
2023/11/02 07:50:10;;;;;;;2.30;2.07;;;11.40;99.90;;;;;;5105133;28;20205;-65
2023/11/02 07:52:37;;;;;;;3.30;1.87;;;11.40;99.90;;;;;;5104431;28;20226;-66
2023/11/02 07:55:05;;;;;;;3.43;1.70;;;11.40;99.90;;;;;;5084610;28;20302;-65
2023/11/02 07:57:33;;;;;;;2.03;1.90;;;11.40;99.90;;;;;;5084673;28;20294;-65
2023/11/02 08:00:00;;;;;;;2.57;1.80;;;11.40;99.90;;;;;;5084147;28;20700;-66
2023/11/02 08:02:27;;;;;;;3.73;2.27;;;11.40;99.90;;;;;;5084372;28;20218;-65
2023/11/02 08:04:54;;;;;;;5.00;2.30;;;11.50;99.90;;;;;;5103633;28;20214;-66
2023/11/02 08:07:21;;;;;;;1.90;1.73;;;11.50;99.90;;;;;;5105539;28;20314;-65
2023/11/02 08:09:48;;;;;;;3.30;2.30;;;11.60;99.90;;;;;;5105831;28;20206;-66
2023/11/02 08:12:15;;;;;;;3.87;1.90;;;11.60;99.90;;;;;;5105513;28;20320;-66
2023/11/02 08:14:43;;;;;;;3.07;1.90;;;11.70;99.90;;;;;;5105520;28;20210;-66
2023/11/02 08:17:12;;;;;;;1.80;1.70;;;11.70;99.90;;;;;;5105255;28;20206;-66
2023/11/02 08:19:39;;;;;;;2.77;2.07;;;11.70;99.90;;;;;;5105095;28;20205;-66
2023/11/02 08:22:06;;;;;;;2.03;1.80;;;11.80;99.90;;;;;;5104731;28;20220;-65
2023/11/02 08:24:32;;;;;;;1.90;1.80;;;11.90;99.90;;;;;;5104510;28;20289;-65
2023/11/02 08:26:59;;;;;;;2.27;2.07;;;12.00;99.90;;;;;;5104461;28;20683;-66
2023/11/02 08:29:26;;;;;;;3.33;1.77;;;12.00;99.90;;;;;;5105390;28;20208;-66
2023/11/02 08:31:54;;;;;;;1.63;1.53;;;12.00;99.90;;;;;;5109231;28;20212;-66
2023/11/02 08:34:22;;;;;;;3.50;1.53;;;12.10;99.90;;;;;;5109236;28;20218;-66
2023/11/02 08:36:48;;;;;;;1.57;1.50;;;12.10;99.90;;;;;;5109359;28;20209;-66
2023/11/02 08:39:17;;;;;;;2.30;1.97;;;12.10;99.90;;;;;;5109648;28;20609;-66
2023/11/02 08:41:44;;;;;;;2.00;1.60;;;12.10;99.90;;;;;;5109706;28;20871;-65
2023/11/02 08:44:11;;;;;;;1.60;1.50;;;12.10;99.90;;;;;;5110017;28;20312;-65
2023/11/02 08:46:38;;;;;;;1.70;1.60;;;12.10;99.90;;;;;;5089538;27;20756;-65
2023/11/02 08:49:06;;;;;;;1.70;1.60;;;12.10;99.90;;;;;;5088687;28;20301;-66
2023/11/02 08:51:33;;;;;;;1.53;1.43;;;12.00;99.90;;;;;;5088755;28;20580;-66
2023/11/02 08:54:02;;;;;;;2.33;2.13;;;12.00;99.90;;;;;;5088695;28;20292;-66
2023/11/02 08:56:28;;;;;;;2.33;1.63;;;12.00;99.90;;;;;;5088360;28;20202;-66
2023/11/02 08:58:56;;;;;;;2.43;1.80;;;12.00;99.90;;;;;;5088143;28;20288;-66
2023/11/02 09:01:25;;;;;;;2.60;1.60;;;12.00;99.90;;;;;;5087854;28;20287;-66
2023/11/02 09:03:53;;;;;;;1.87;1.50;;;12.00;99.90;;;;;;5098164;28;20222;-66
2023/11/02 09:06:23;;;;;;;3.40;1.60;;;12.00;99.90;;;;;;5108785;28;20289;-66
2023/11/02 09:08:50;;;;;;;2.70;1.77;;;12.10;99.90;;;;;;5092627;28;20214;-65
2023/11/02 09:11:19;;;;;;;1.63;1.50;;;12.10;99.90;;;;;;5088131;28;20309;-65
2023/11/02 09:13:46;;;;;;;2.83;1.60;;;12.10;99.90;;;;;;5087656;28;20795;-65
2023/11/02 09:16:13;;;;;;;1.63;1.57;;;12.10;99.90;;;;;;5087730;28;20293;-66
2023/11/02 09:18:40;;;;;;;3.27;1.80;;;12.10;99.90;;;;;;5087722;28;20218;-65
2023/11/02 09:21:08;;;;;;;2.03;1.83;;;12.10;99.90;;;;;;5088165;28;20252;-66
2023/11/02 09:23:37;;;;;;;1.67;1.43;;;12.20;99.90;;;;;;5087497;28;20298;-66
2023/11/02 09:26:05;;;;;;;2.50;1.57;;;12.20;99.90;;;;;;5087900;28;20207;-65
2023/11/02 09:28:33;;;;;;;1.87;1.73;;;12.10;99.90;;;;;;5101294;28;20514;-66
2023/11/02 09:31:00;;;;;;;2.50;1.60;;;12.20;99.90;;;;;;5108447;28;20217;-65
2023/11/02 09:33:27;;;;;;;2.00;1.70;;;12.20;99.90;;;;;;5107740;28;20899;-65
2023/11/02 09:35:54;;;;;;;3.03;1.43;;;12.20;99.90;;;;;;5108170;28;20289;-66
2023/11/02 09:38:21;;;;;;;2.87;1.53;;;12.20;99.90;;;;;;5107850;28;20210;-65
2023/11/02 09:40:49;;;;;;;2.50;1.77;;;12.30;99.90;;;;;;5107538;28;20206;-65
2023/11/02 09:43:17;;;;;;;3.33;1.40;;;12.30;99.90;;;;;;5107861;28;20213;-65
2023/11/02 09:45:44;;;;;;;2.00;1.80;;;12.30;99.90;;;;;;5107663;28;20293;-65
2023/11/02 09:48:12;;;;;;;1.50;1.40;;;12.40;99.90;;;;;;5107923;28;20210;-65
2023/11/02 09:50:39;;;;;;;3.27;1.37;;;12.40;99.90;;;;;;5107991;28;20202;-65
2023/11/02 09:53:08;;;;;;;3.07;1.43;;;12.50;99.90;;;;;;5107866;28;20320;-65
2023/11/02 09:55:38;;;;;;;1.73;1.33;;;12.60;99.90;;;;;;5089003;28;20215;-65
2023/11/02 09:58:07;;;;;;;1.60;1.50;;;12.60;99.90;;;;;;5087147;28;20281;-65
2023/11/02 10:00:34;;;;;;;4.20;1.57;;;12.70;99.90;;;;;;5086323;28;20697;-65
2023/11/02 10:03:01;;;;;;;2.83;1.40;;;12.70;99.90;;;;;;5087229;28;20230;-65
2023/11/02 10:05:29;;;;;;;3.43;1.63;;;12.70;99.90;;;;;;5106680;28;20202;-65
2023/11/02 10:07:56;;;;;;;1.73;1.50;;;12.80;99.90;;;;;;5107702;28;20290;-65
2023/11/02 10:10:23;;;;;;;3.43;1.60;;;12.80;99.90;;;;;;5106970;28;20720;-65
2023/11/02 10:12:50;;;;;;;1.93;1.50;;;12.80;99.90;;;;;;5106949;28;20948;-65
2023/11/02 10:15:19;;;;;;;5.00;4.50;;;12.90;99.90;;;;;;5107264;28;20739;-65
2023/11/02 10:17:46;;;;;;;5.03;3.10;;;12.90;99.90;;;;;;5107028;28;20584;-65
2023/11/02 10:20:14;;;;;;;2.20;1.50;;;12.90;99.90;;;;;;5107529;28;20317;-65
2023/11/02 10:22:42;;;;;;;1.50;1.40;;;12.90;99.90;;;;;;5107898;28;20661;-65
2023/11/02 10:25:13;;;;;;;1.50;1.40;;;12.90;99.90;;;;;;5091031;28;20207;-66
2023/11/02 10:27:42;;;;;;;1.53;1.03;;;12.90;99.90;;;;;;5086733;28;20248;-65
2023/11/02 10:30:10;;;;;;;2.77;1.33;;;12.90;99.90;;;;;;5087068;28;20210;-65
2023/11/02 10:32:38;;;;;;;1.50;1.40;;;13.00;99.90;;;;;;5086839;28;20210;-65
2023/11/02 10:35:07;;;;;;;1.50;1.40;;;13.00;99.90;;;;;;5106993;28;20214;-66
2023/11/02 10:37:36;;;;;;;2.07;1.50;;;13.00;99.90;;;;;;5106755;28;20289;-66
2023/11/02 10:40:04;;;;;;;1.40;1.30;;;13.00;99.90;;;;;;5107056;27;20323;-65
2023/11/02 10:42:34;;;;;;;1.63;1.30;;;12.90;99.90;;;;;;5097124;28;20246;-65
2023/11/02 10:45:03;;;;;;;1.53;1.43;;;12.90;99.90;;;;;;5086744;28;20206;-65
2023/11/02 10:47:32;;;;;;;1.40;1.30;;;12.90;99.90;;;;;;5086334;28;20889;-65
2023/11/02 10:50:00;;;;;;;1.70;1.47;;;12.90;99.90;;;;;;5087037;28;20210;-65
2023/11/02 10:52:30;;;;;;;1.40;1.10;;;12.90;99.90;;;;;;5086136;28;20293;-66
2023/11/02 10:55:14;;;;;;;2.70;1.07;;;12.90;99.90;;;;;;5086803;28;20322;-66
2023/11/02 10:57:42;;;;;;;1.57;1.10;;;12.90;99.90;;;;;;5086371;28;20674;-66
2023/11/02 11:00:10;;;;;;;2.67;2.47;;;12.90;99.90;;;;;;5092425;28;20233;-66
2023/11/02 11:02:38;;;;;;;3.40;1.70;;;12.80;99.90;;;;;;5106042;28;20296;-66
2023/11/02 11:05:09;;;;;;;1.70;1.60;;;12.80;99.90;;;;;;5106485;28;20230;-67
2023/11/02 11:07:37;;;;;;;1.33;1.20;;;12.80;99.90;;;;;;5106098;27;20358;-66
2023/11/02 11:10:05;;;;;;;1.20;1.17;;;12.80;99.90;;;;;;5086143;28;20224;-67
2023/11/02 11:12:37;;;;;;;2.43;1.27;;;12.90;99.90;;;;;;5085752;28;20972;-66
2023/11/02 11:15:04;;;;;;;1.53;1.17;;;12.90;99.90;;;;;;5086098;28;20223;-66
2023/11/02 11:17:32;;;;;;;1.83;1.30;;;12.90;99.90;;;;;;5086288;28;20281;-66
2023/11/02 11:19:59;;;;;;;1.30;1.20;;;13.00;99.90;;;;;;5090816;28;20285;-67
2023/11/02 11:22:30;;;;;;;1.50;1.40;;;13.00;99.90;;;;;;5106569;28;20283;-66
2023/11/02 11:25:03;;;;;;;1.30;1.20;;;13.10;99.90;;;;;;5106490;28;20190;-66
2023/11/02 11:27:32;;;;;;;1.57;1.10;;;13.10;99.90;;;;;;5106269;28;20202;-66
2023/11/02 11:29:59;;;;;;;2.50;1.33;;;13.10;99.90;;;;;;5106328;28;20242;-66
2023/11/02 11:32:35;;;;;;;1.33;1.20;;;13.10;99.90;;;;;;5105776;28;20208;-66
2023/11/02 11:35:06;;;;;;;1.47;1.37;;;13.10;99.90;;;;;;5088981;28;20238;-66
2023/11/02 11:37:37;;;;;;;2.80;1.00;;;13.10;99.90;;;;;;5085903;28;20358;-67
2023/11/02 11:40:06;;;;;;;1.80;1.50;;;13.10;99.90;;;;;;5085532;28;20230;-66
2023/11/02 11:43:00;;;;;;;2.00;0.90;;;13.10;99.90;;;;;;5086115;28;20226;-66
2023/11/02 11:45:30;;;;;;;1.10;1.10;;;13.10;99.90;;;;;;5085649;28;20217;-66
2023/11/02 11:47:57;;;;;;;1.60;1.10;;;13.20;99.90;;;;;;5102434;28;20987;-66
2023/11/02 11:50:32;;;;;;;1.33;1.10;;;13.20;99.90;;;;;;5105987;28;20583;-66
2023/11/02 11:53:17;;;;;;;1.37;1.20;;;13.20;99.90;;;;;;5105855;28;20301;-66
2023/11/02 11:55:46;;;;;;;1.70;1.00;;;13.30;99.90;;;;;;5105763;28;20291;-68
2023/11/02 11:58:14;;;;;;;2.03;1.30;;;13.30;99.90;;;;;;5105305;28;20840;-65
2023/11/02 12:01:17;;;;;;;3.00;1.40;;;13.30;99.90;;;;;;5104820;28;20238;-66
2023/11/02 12:03:45;;;;;;;1.90;1.20;;;13.40;99.90;;;;;;5104918;28;20703;-65
2023/11/02 12:06:13;;;;;;;2.30;1.40;;;13.40;99.90;;;;;;5105526;28;20205;-68
2023/11/02 12:08:46;;;;;;;4.20;1.10;;;13.40;99.90;;;;;;5104872;28;20204;-65
2023/11/02 12:11:14;;;;;;;1.10;1.10;;;13.40;99.90;;;;;;5105156;28;20218;-65
2023/11/02 12:13:49;;;;;;;2.70;1.30;;;13.30;99.90;;;;;;5104610;28;20233;-65
2023/11/02 12:16:16;;;;;;;3.23;1.23;;;13.30;99.90;;;;;;5100017;28;20208;-66
2023/11/02 12:18:46;;;;;;;1.53;1.40;;;13.30;99.90;;;;;;5084102;28;20206;-65
2023/11/02 12:21:17;;;;;;;1.60;1.10;;;13.30;99.90;;;;;;5085079;28;20292;-65
2023/11/02 12:23:45;;;;;;;1.57;1.47;;;13.30;99.90;;;;;;5084479;28;20206;-66
2023/11/02 12:26:12;;;;;;;2.67;1.20;;;13.30;99.90;;;;;;5084366;28;20665;-65
2023/11/02 12:28:47;;;;;;;2.63;1.30;;;13.30;99.90;;;;;;5084521;28;20217;-65
2023/11/02 12:31:24;;;;;;;1.47;1.33;;;13.30;99.90;;;;;;5101278;28;20228;-65
2023/11/02 12:33:51;;;;;;;1.17;1.17;;;13.30;99.90;;;;;;5104922;28;20229;-65
2023/11/02 12:36:18;;;;;;;1.87;1.23;;;13.30;99.90;;;;;;5084256;28;20335;-65
2023/11/02 12:38:49;;;;;;;2.30;1.00;;;13.30;99.90;;;;;;5084545;28;20322;-65
2023/11/02 12:41:23;;;;;;;3.47;1.67;;;13.30;99.90;;;;;;5084868;28;20674;-65
2023/11/02 12:43:58;;;;;;;3.50;1.70;;;13.30;99.90;;;;;;5084507;28;20246;-65
2023/11/02 12:46:25;;;;;;;1.60;1.20;;;13.30;99.90;;;;;;5084929;28;20278;-65
2023/11/02 12:48:53;;;;;;;2.20;1.47;;;13.30;99.90;;;;;;5084389;28;20801;-65
2023/11/02 12:51:21;;;;;;;1.50;1.40;;;13.40;99.90;;;;;;5084687;28;20313;-65
2023/11/02 12:53:51;;;;;;;2.80;1.70;;;13.40;99.90;;;;;;5099767;28;20234;-65
2023/11/02 12:56:20;;;;;;;1.63;1.20;;;13.40;99.90;;;;;;5104741;28;20209;-65
2023/11/02 12:58:47;;;;;;;3.40;1.40;;;13.40;99.90;;;;;;5104676;28;20241;-65
2023/11/02 13:01:15;;;;;;;1.27;1.17;;;13.40;99.90;;;;;;5095888;28;20301;-66
2023/11/02 13:04:03;;;;;;;1.40;1.27;;;13.40;99.90;;;;;;5092722;28;20640;-65
2023/11/02 13:06:35;;;;;;;4.27;1.23;;;13.40;99.90;;;;;;5104785;28;20195;-65